01ME weather

Saint Peter's Seaplane Base
Portage Lake, Maine, United States

Public forecast

Using degrees Fahrenheit for public forecast. Weather courtesy of forecast.io.

METAR (pilot weather report)

Closest report is Presque Isle International Airport, 19.5 nm (36.1 km) ESE. Retrieved 2019/09/22 12:56 UTC (6 minutes ago):

KPQI 221256Z AUTO 00000KT 10SM CLR 13/09 A3006 RMK AO2 SLP207 T01280094

TAF (pilot weather forecast)

Closest forecast is Presque Isle International Airport, 19.5 nm (36.1 km) ESE. Retrieved 2019/09/22 12:22 UTC (40 minutes ago):

TAF KPQI 221120Z 2212/2312 19003KT P6SM FEW250 FM221600 21010G18KT P6SM SCT250 FM221900 22012G20KT P6SM SCT050 BKN200 FM222200 21010G18KT P6SM BKN050 FM230900 22009KT P6SM VCSH OVC050